Norse Mersey — IBEN — position and weather

sailwx.info

Track history (hours):
 
Tides and Currents Weather Stations Pressure Air Temp Water Temp Dewpoint Dewpoint Depression Visibility Wind Speed Wind Dir Waves Ship Positions

Norse Mersey

Operator: Norse Merchant Ferries

Last reported at 2017-Feb-26 02:34 UTC. Time now 2017-Feb-26 03:31 UTC.
Position N 43°13' E 010°05'.

Length 175 m; draft 5.8 m.

Type: Passenger vessel. MMSI: 247026000.

Date/timePositionNaut miles runAvg speedWind from/ knotsBaromVisibWave heightAir tempDewpointWater temp
2017-Feb-26 02:34N 43°13' E 010°05'1515.0
2017-Feb-26 01:33N 43°27' E 010°10'10 9.5
2017-Feb-26 00:33N 43°35' E 010°18'0 0.2
2017-Feb-25 23:31N 43°35' E 010°18'0 0.0
2017-Feb-25 22:32N 43°35' E 010°18'0 0.0
2017-Feb-25 21:32N 43°35' E 010°18'0 0.0
2017-Feb-25 20:32N 43°35' E 010°18'0 0.0
2017-Feb-25 19:29N 43°35' E 010°18'0 0.0
2017-Feb-25 18:32N 43°35' E 010°18'0 0.0
2017-Feb-25 17:32N 43°35' E 010°18'0 0.0
2017-Feb-25 16:33N 43°35' E 010°18'6 5.6
2017-Feb-25 15:33N 43°30' E 010°14'1414.4
2017-Feb-25 14:34N 43°17' E 010°07'1414.0
2017-Feb-25 13:33N 43°03' E 010°01'24514.1
2017-Feb-24 20:09N 38°59' E 009°34'914.7
2017-Feb-24 19:33N 39°02' E 009°23'1515.0
2017-Feb-24 18:33N 39°10' E 009°07'2 2.3
2017-Feb-24 17:33N 39°13' E 009°06'0 0.0
2017-Feb-24 16:33N 39°13' E 009°06'0 0.0
2017-Feb-24 15:33N 39°13' E 009°06'0 0.0
2017-Feb-24 14:33N 39°13' E 009°06'0 0.0
2017-Feb-24 13:33N 39°13' E 009°06'0 0.0
2017-Feb-24 12:33N 39°13' E 009°06'0 0.0
2017-Feb-24 11:33N 39°13' E 009°06'0 0.0
2017-Feb-24 10:33N 39°13' E 009°06'0 0.0
2017-Feb-24 09:33N 39°13' E 009°06'0 0.0
2017-Feb-24 08:33N 39°13' E 009°06'0 0.0
2017-Feb-24 07:15N 39°13' E 009°06'0 0.0
2017-Feb-24 06:33N 39°13' E 009°06'0 0.0
2017-Feb-24 05:33N 39°13' E 009°06'0 0.0
2017-Feb-24 04:33N 39°13' E 009°06'0 0.0
2017-Feb-24 03:33N 39°13' E 009°06'0 0.0
2017-Feb-24 02:33N 39°13' E 009°06'0 0.0
2017-Feb-24 01:33N 39°13' E 009°06'0 0.0
2017-Feb-24 00:33N 39°13' E 009°06'0 0.0
2017-Feb-23 23:33N 39°13' E 009°06'0 0.0
2017-Feb-23 22:33N 39°13' E 009°06'0 0.0
2017-Feb-23 21:33N 39°13' E 009°06'0 0.0
2017-Feb-23 20:33N 39°13' E 009°06'0 0.0
2017-Feb-23 19:33N 39°13' E 009°06'0 0.0
2017-Feb-23 18:33N 39°13' E 009°06'0 0.0
2017-Feb-23 17:33N 39°13' E 009°06'0 0.0
2017-Feb-23 16:33N 39°13' E 009°06'0 0.0
2017-Feb-23 15:33N 39°13' E 009°06'0 0.0
2017-Feb-23 14:33N 39°13' E 009°06'0 0.0
2017-Feb-23 13:33N 39°13' E 009°06'0 0.0
2017-Feb-23 12:33N 39°13' E 009°06'0 0.0
2017-Feb-23 11:33N 39°13' E 009°06'0 0.0
2017-Feb-23 10:33N 39°13' E 009°06'0 0.0
2017-Feb-23 09:33N 39°13' E 009°06'0 0.0
2017-Feb-23 08:33N 39°13' E 009°06'0 0.0
2017-Feb-23 07:33N 39°13' E 009°06'0 0.0
2017-Feb-23 06:33N 39°13' E 009°06'0 0.0
2017-Feb-23 05:33N 39°13' E 009°06'0 0.0
2017-Feb-23 04:33N 39°13' E 009°06'0 0.0
2017-Feb-23 03:33N 39°13' E 009°06'0 0.0
2017-Feb-23 02:33N 39°13' E 009°06'0 0.0
2017-Feb-23 01:33N 39°13' E 009°06'0 0.0
2017-Feb-23 00:33N 39°13' E 009°06'0 0.0
2017-Feb-22 23:33N 39°13' E 009°06'0 0.0
2017-Feb-22 22:33N 39°13' E 009°06'0 0.0
2017-Feb-22 21:33N 39°13' E 009°06'0 0.0
2017-Feb-22 20:33N 39°13' E 009°06'0 0.0
2017-Feb-22 19:30N 39°13' E 009°06'2 2.1
2017-Feb-22 18:33N 39°11' E 009°07'1010.0
2017-Feb-22 17:32N 39°04' E 009°17'23813.6
2017-Feb-22 00:04N 43°01' E 010°00'815.6
2017-Feb-21 23:34N 43°08' E 010°03'1515.3
2017-Feb-21 22:34N 43°23' E 010°09'1211.7
2017-Feb-21 21:33N 43°33' E 010°17'2 2.1
2017-Feb-21 20:31N 43°35' E 010°18'0 0.0
2017-Feb-21 19:28N 43°35' E 010°18'0 0.0
2017-Feb-21 18:31N 43°35' E 010°18'0 0.0
2017-Feb-21 17:31N 43°35' E 010°18'0 0.0
2017-Feb-21 16:31N 43°35' E 010°18'1 1.2
2017-Feb-21 15:33N 43°34' E 010°18'1110.9
2017-Feb-21 14:33N 43°24' E 010°11'1615.6
2017-Feb-21 13:33N 43°09' E 010°05'25114.8
2017-Feb-20 20:32N 38°60' E 009°28'1515.7
2017-Feb-20 19:33N 39°08' E 009°11'6 5.7
2017-Feb-20 18:31N 39°13' E 009°06'0 0.0
2017-Feb-20 17:31N 39°13' E 009°06'0 0.0
2017-Feb-20 16:31N 39°13' E 009°06'0 0.0
2017-Feb-20 15:31N 39°13' E 009°06'0 0.0
2017-Feb-20 14:31N 39°13' E 009°06'0 0.0
2017-Feb-20 13:31N 39°13' E 009°06'0 0.0
2017-Feb-20 12:31N 39°13' E 009°06'0 0.0
2017-Feb-20 11:31N 39°13' E 009°06'0 0.0
2017-Feb-20 10:31N 39°13' E 009°06'0 0.0
2017-Feb-20 09:31N 39°13' E 009°06'0 0.0
2017-Feb-20 08:31N 39°13' E 009°06'0 0.0
2017-Feb-20 07:31N 39°13' E 009°06'0 0.0
2017-Feb-20 06:31N 39°13' E 009°06'0 0.0
2017-Feb-20 05:31N 39°13' E 009°06'7 6.9
2017-Feb-20 04:33N 39°08' E 009°12'23013.5
2017-Feb-19 11:33N 42°55' E 009°58'1515.4
2017-Feb-19 10:34N 43°10' E 010°04'1515.3
2017-Feb-19 09:34N 43°25' E 010°09'1110.6
2017-Feb-19 08:34N 43°33' E 010°18'2 1.6
2017-Feb-19 07:31N 43°35' E 010°18'0 0.0
2017-Feb-19 06:25N 43°35' E 010°18'0 0.0
2017-Feb-19 05:31N 43°35' E 010°18'0 0.0
2017-Feb-19 04:31N 43°35' E 010°18'0 0.0
2017-Feb-19 03:25N 43°35' E 010°18'0 0.5
2017-Feb-19 02:33N 43°34' E 010°18'4 3.9
2017-Feb-19 01:33N 43°31' E 010°15'1211.8
2017-Feb-19 00:33N 43°20' E 010°09'1515.1
2017-Feb-18 23:33N 43°06' E 010°02'24814.6
2017-Feb-18 06:32N 38°59' E 009°28'1515.5
2017-Feb-18 05:33N 39°08' E 009°12'7 6.4
2017-Feb-18 04:32N 39°13' E 009°06'0 0.0
2017-Feb-18 03:32N 39°13' E 009°06'0 0.0
2017-Feb-18 02:32N 39°13' E 009°06'0 0.0
2017-Feb-18 01:32N 39°13' E 009°06'0 0.0
2017-Feb-18 00:32N 39°13' E 009°06'0 0.2
2017-Feb-17 23:33N 39°13' E 009°06'1010.3
2017-Feb-17 22:33N 39°06' E 009°16'24313.5
2017-Feb-17 04:33N 43°06' E 010°02'1514.9
2017-Feb-17 03:33N 43°21' E 010°08'1313.0
2017-Feb-17 02:33N 43°32' E 010°16'3 3.0
2017-Feb-17 01:33N 43°35' E 010°18'0 0.0
2017-Feb-17 00:33N 43°35' E 010°18'0 0.0
2017-Feb-16 23:30N 43°35' E 010°18'0 0.0
2017-Feb-16 22:30N 43°35' E 010°18'0 0.0
2017-Feb-16 21:33N 43°35' E 010°18'6 5.8
2017-Feb-16 20:33N 43°30' E 010°14'1515.5
2017-Feb-16 19:33N 43°15' E 010°07'  
Track history (hours):
 
Tides and Currents Weather Stations Pressure Air Temp Water Temp Dewpoint Dewpoint Depression Visibility Wind Speed Wind Dir Waves Ship Positions

Norse Mersey

Operator: Norse Merchant Ferries

Last reported at 2017-Feb-26 02:34 UTC. Time now 2017-Feb-26 03:31 UTC.
Position N 43°13' E 010°05'.

Length 175 m; draft 5.8 m.

Type: Passenger vessel. MMSI: 247026000.

Date/timePositionNaut miles runAvg speedWind from/ knotsBaromVisibWave heightAir tempDewpointWater temp
2017-Feb-26 02:34N 43°13' E 010°05'1515.0
2017-Feb-26 01:33N 43°27' E 010°10'10 9.5
2017-Feb-26 00:33N 43°35' E 010°18'0 0.2
2017-Feb-25 23:31N 43°35' E 010°18'0 0.0
2017-Feb-25 22:32N 43°35' E 010°18'0 0.0
2017-Feb-25 21:32N 43°35' E 010°18'0 0.0
2017-Feb-25 20:32N 43°35' E 010°18'0 0.0
2017-Feb-25 19:29N 43°35' E 010°18'0 0.0
2017-Feb-25 18:32N 43°35' E 010°18'0 0.0
2017-Feb-25 17:32N 43°35' E 010°18'0 0.0
2017-Feb-25 16:33N 43°35' E 010°18'6 5.6
2017-Feb-25 15:33N 43°30' E 010°14'1414.4
2017-Feb-25 14:34N 43°17' E 010°07'1414.0
2017-Feb-25 13:33N 43°03' E 010°01'24514.1
2017-Feb-24 20:09N 38°59' E 009°34'914.7
2017-Feb-24 19:33N 39°02' E 009°23'1515.0
2017-Feb-24 18:33N 39°10' E 009°07'2 2.3
2017-Feb-24 17:33N 39°13' E 009°06'0 0.0
2017-Feb-24 16:33N 39°13' E 009°06'0 0.0
2017-Feb-24 15:33N 39°13' E 009°06'0 0.0
2017-Feb-24 14:33N 39°13' E 009°06'0 0.0
2017-Feb-24 13:33N 39°13' E 009°06'0 0.0
2017-Feb-24 12:33N 39°13' E 009°06'0 0.0
2017-Feb-24 11:33N 39°13' E 009°06'0 0.0
2017-Feb-24 10:33N 39°13' E 009°06'0 0.0
2017-Feb-24 09:33N 39°13' E 009°06'0 0.0
2017-Feb-24 08:33N 39°13' E 009°06'0 0.0
2017-Feb-24 07:15N 39°13' E 009°06'0 0.0
2017-Feb-24 06:33N 39°13' E 009°06'0 0.0
2017-Feb-24 05:33N 39°13' E 009°06'0 0.0
2017-Feb-24 04:33N 39°13' E 009°06'0 0.0
2017-Feb-24 03:33N 39°13' E 009°06'0 0.0
2017-Feb-24 02:33N 39°13' E 009°06'0 0.0
2017-Feb-24 01:33N 39°13' E 009°06'0 0.0
2017-Feb-24 00:33N 39°13' E 009°06'0 0.0
2017-Feb-23 23:33N 39°13' E 009°06'0 0.0
2017-Feb-23 22:33N 39°13' E 009°06'0 0.0
2017-Feb-23 21:33N 39°13' E 009°06'0 0.0
2017-Feb-23 20:33N 39°13' E 009°06'0 0.0
2017-Feb-23 19:33N 39°13' E 009°06'0 0.0
2017-Feb-23 18:33N 39°13' E 009°06'0 0.0
2017-Feb-23 17:33N 39°13' E 009°06'0 0.0
2017-Feb-23 16:33N 39°13' E 009°06'0 0.0
2017-Feb-23 15:33N 39°13' E 009°06'0 0.0
2017-Feb-23 14:33N 39°13' E 009°06'0 0.0
2017-Feb-23 13:33N 39°13' E 009°06'0 0.0
2017-Feb-23 12:33N 39°13' E 009°06'0 0.0
2017-Feb-23 11:33N 39°13' E 009°06'0 0.0
2017-Feb-23 10:33N 39°13' E 009°06'0 0.0
2017-Feb-23 09:33N 39°13' E 009°06'0 0.0
2017-Feb-23 08:33N 39°13' E 009°06'0 0.0
2017-Feb-23 07:33N 39°13' E 009°06'0 0.0
2017-Feb-23 06:33N 39°13' E 009°06'0 0.0
2017-Feb-23 05:33N 39°13' E 009°06'0 0.0
2017-Feb-23 04:33N 39°13' E 009°06'0 0.0
2017-Feb-23 03:33N 39°13' E 009°06'0 0.0
2017-Feb-23 02:33N 39°13' E 009°06'0 0.0
2017-Feb-23 01:33N 39°13' E 009°06'0 0.0
2017-Feb-23 00:33N 39°13' E 009°06'0 0.0
2017-Feb-22 23:33N 39°13' E 009°06'0 0.0
2017-Feb-22 22:33N 39°13' E 009°06'0 0.0
2017-Feb-22 21:33N 39°13' E 009°06'0 0.0
2017-Feb-22 20:33N 39°13' E 009°06'0 0.0
2017-Feb-22 19:30N 39°13' E 009°06'2 2.1
2017-Feb-22 18:33N 39°11' E 009°07'1010.0
2017-Feb-22 17:32N 39°04' E 009°17'23813.6
2017-Feb-22 00:04N 43°01' E 010°00'815.6
2017-Feb-21 23:34N 43°08' E 010°03'1515.3
2017-Feb-21 22:34N 43°23' E 010°09'1211.7
2017-Feb-21 21:33N 43°33' E 010°17'2 2.1
2017-Feb-21 20:31N 43°35' E 010°18'0 0.0
2017-Feb-21 19:28N 43°35' E 010°18'0 0.0
2017-Feb-21 18:31N 43°35' E 010°18'0 0.0
2017-Feb-21 17:31N 43°35' E 010°18'0 0.0
2017-Feb-21 16:31N 43°35' E 010°18'1 1.2
2017-Feb-21 15:33N 43°34' E 010°18'1110.9
2017-Feb-21 14:33N 43°24' E 010°11'1615.6
2017-Feb-21 13:33N 43°09' E 010°05'25114.8
2017-Feb-20 20:32N 38°60' E 009°28'1515.7
2017-Feb-20 19:33N 39°08' E 009°11'6 5.7
2017-Feb-20 18:31N 39°13' E 009°06'0 0.0
2017-Feb-20 17:31N 39°13' E 009°06'0 0.0
2017-Feb-20 16:31N 39°13' E 009°06'0 0.0
2017-Feb-20 15:31N 39°13' E 009°06'0 0.0
2017-Feb-20 14:31N 39°13' E 009°06'0 0.0
2017-Feb-20 13:31N 39°13' E 009°06'0 0.0
2017-Feb-20 12:31N 39°13' E 009°06'0 0.0
2017-Feb-20 11:31N 39°13' E 009°06'0 0.0
2017-Feb-20 10:31N 39°13' E 009°06'0 0.0
2017-Feb-20 09:31N 39°13' E 009°06'0 0.0
2017-Feb-20 08:31N 39°13' E 009°06'0 0.0
2017-Feb-20 07:31N 39°13' E 009°06'0 0.0
2017-Feb-20 06:31N 39°13' E 009°06'0 0.0
2017-Feb-20 05:31N 39°13' E 009°06'7 6.9
2017-Feb-20 04:33N 39°08' E 009°12'23013.5
2017-Feb-19 11:33N 42°55' E 009°58'1515.4
2017-Feb-19 10:34N 43°10' E 010°04'1515.3
2017-Feb-19 09:34N 43°25' E 010°09'1110.6
2017-Feb-19 08:34N 43°33' E 010°18'2 1.6
2017-Feb-19 07:31N 43°35' E 010°18'0 0.0
2017-Feb-19 06:25N 43°35' E 010°18'0 0.0
2017-Feb-19 05:31N 43°35' E 010°18'0 0.0
2017-Feb-19 04:31N 43°35' E 010°18'0 0.0
2017-Feb-19 03:25N 43°35' E 010°18'0 0.5
2017-Feb-19 02:33N 43°34' E 010°18'4 3.9
2017-Feb-19 01:33N 43°31' E 010°15'1211.8
2017-Feb-19 00:33N 43°20' E 010°09'1515.1
2017-Feb-18 23:33N 43°06' E 010°02'24814.6
2017-Feb-18 06:32N 38°59' E 009°28'1515.5
2017-Feb-18 05:33N 39°08' E 009°12'7 6.4
2017-Feb-18 04:32N 39°13' E 009°06'0 0.0
2017-Feb-18 03:32N 39°13' E 009°06'0 0.0
2017-Feb-18 02:32N 39°13' E 009°06'0 0.0
2017-Feb-18 01:32N 39°13' E 009°06'0 0.0
2017-Feb-18 00:32N 39°13' E 009°06'0 0.2
2017-Feb-17 23:33N 39°13' E 009°06'1010.3
2017-Feb-17 22:33N 39°06' E 009°16'24313.5
2017-Feb-17 04:33N 43°06' E 010°02'1514.9
2017-Feb-17 03:33N 43°21' E 010°08'1313.0
2017-Feb-17 02:33N 43°32' E 010°16'3 3.0
2017-Feb-17 01:33N 43°35' E 010°18'0 0.0
2017-Feb-17 00:33N 43°35' E 010°18'0 0.0
2017-Feb-16 23:30N 43°35' E 010°18'0 0.0
2017-Feb-16 22:30N 43°35' E 010°18'0 0.0
2017-Feb-16 21:33N 43°35' E 010°18'6 5.8
2017-Feb-16 20:33N 43°30' E 010°14'1515.5
2017-Feb-16 19:33N 43°15' E 010°07'  

Dump ship's entire track history